Meteo Giornale » Osservazioni meteo Argentina » Rosario Aerodrome
ore: 21:00 - Osservazioni Meteo Rosario Aerodrome
Lat. 32° 55' S Lon. 60° 47' W Alt. 25 metri s.l.m.
13 °C
Sereno
Temp. 24 Ore
12 °C
20 °C
Sud/Sud-Ovest
11.1 Km/h
Dew point 12 °C
Umidità 93 %
Visibilità 10 Km
Il sole sorge alle ore 07:21
Il sole tramonta alle ore 18:45
| Data e Ora | Cielo e Fenomeni | T °C | DP °C | Um. % | Pres. hPa | Vis. km | Vento km/h | |
|---|---|---|---|---|---|---|---|---|
| Oggi h: 21:00 | Sereno | 13 | 12 | 93 | 1017 | 10 | S/SO 11.1 | |
| Oggi h: 20:00 | Sereno | 16 | 14 | 87 | 1015 | 10 | S/SE 9.3 | |
| Oggi h: 19:00 | Nuvoloso | 18 | 14 | 77 | 1015 | 10 | S/SE 11.1 | |
| Oggi h: 18:00 | Nuvoloso | 19 | 15 | 77 | 1014 | 10 | SE 13 | |
| Oggi h: 17:00 | Molto Nuvoloso | 19 | 15 | 77 | 1013 | 10 | E/SE 7.4 | |
| Oggi h: 16:00 | Molto Nuvoloso | 20 | 15 | 72 | 1013 | 10 | E/NE 11.1 | |
| Oggi h: 15:00 | Molto Nuvoloso | 19 | 14 | 72 | 1013 | 10 | N 5.5 | |
| Oggi h: 14:00 | Molto Nuvoloso | 18 | 14 | 77 | 1013 | 10 | NE 7.4 | |
| Oggi h: 13:00 | Molto Nuvoloso | 18 | 14 | 77 | 1014 | 10 | N 3.7 | |
| Oggi h: 12:00 | Coperto | 16 | 14 | 87 | 1013 | 10 | S/SE 9.3 | |
| Oggi h: 11:00 | Coperto | 15 | 14 | 93 | 1013 | 10 | E/SE 11.1 | |
| Oggi h: 10:00 | Coperto | 14 | 14 | 100 | 1013 | 6 | E/SE 14.8 | |
| Oggi h: 09:00 | Pioviggine Foschia | 14 | 14 | 100 | 1012 | 2 | E 16.7 | |
| Oggi h: 08:00 | Pioviggine Banco di nebbia | 14 | 14 | 100 | 1012 | 1 | E 16.7 | |
| Oggi h: 07:39 | Foschia | 14 | 14 | 100 | 1012 | 1 | E 14.8 | |
| Oggi h: 07:00 | Foschia | 14 | 14 | 100 | 1012 | 2 | E 13 | |
| Oggi h: 06:00 | Pioviggine | 13 | 12 | 93 | 1011 | 4 | E 11.1 | |
| Oggi h: 05:00 | Molto Nuvoloso | 12 | 12 | 100 | 1011 | 10 | E 11.1 | |
| Oggi h: 04:00 | Poco Nuvoloso | 12 | 12 | 100 | 1012 | 10 | E 14.8 | |
| Oggi h: 03:00 | Sereno | 12 | 11 | 93 | 1013 | 10 | E 11.1 | |
| Oggi h: 02:00 | Sereno | 12 | 10 | 87 | 1013 | 10 | E 13 | |
| Oggi h: 01:00 | Sereno | 13 | 10 | 81 | 1013 | 10 | E 11.1 | |
| Oggi h: 00:00 | Sereno | 14 | 10 | 76 | 1013 | 10 | E 16.7 | |
| Ieri h: 23:00 | Sereno | 16 | 10 | 67 | 1013 | 10 | E/SE 14.8 | |
| Ieri h: 22:00 | Sereno | 18 | 9 | 55 | 1013 | 10 | E/SE 14.8 | |



